To NAV CANADA Home Page Login to a new session Search on AWWS site Disclaimer Vers la page française équivalente Tips FAQ What's new on the site To the Forecasts and Observations / NOTAM section To "File a Flight Plan" website Publications and other links Update of the User's profile FIC Telephone Numbers My Weather Data Folder Route Weather Data Regional Weather Data Local Weather Data To the Forecasts and Observations / NOTAM section
Request Generated 10/19/2018 at 16:31:06 UTC . Weather information available at that time is displayed.

METAR/TAF

MEADOW LAKE/SK    

METAR CYLJ 191600Z 31007KT 15SM FEW090 FEW220 06/01 A3018 RMK AC1CI1 AC TR CI TR SLP241=
METAR CYLJ 191500Z 27011KT 15SM FEW090 02/M01 A3017 RMK AC1 AC TR SLP238=
METAR CYLJ 191400Z 24010KT 15SM FEW090 M00/M02 A3016 RMK AC2 SLP237=

CYLJ - No TAF is issued for this station

Your time UTC time
Weather data provided by Environment Canada and NAV CANADA